createdAt,value
2022-11-29T00:01:05.073Z,108
2022-11-29T00:16:05.628Z,107
2022-11-29T00:31:05.558Z,103
2022-11-29T00:46:05.873Z,105
2022-11-29T01:01:05.662Z,101
2022-11-29T01:16:05.697Z,104
2022-11-29T01:31:05.893Z,137
2022-11-29T01:46:05.149Z,116
2022-11-29T02:01:05.474Z,114
2022-11-29T02:16:05.773Z,115
2022-11-29T02:31:05.915Z,130
2022-11-29T02:46:05.867Z,124
2022-11-29T03:01:05.154Z,117
2022-11-29T03:16:05.249Z,118
2022-11-29T03:31:05.509Z,108
2022-11-29T03:46:05.622Z,101
2022-11-29T04:01:05.875Z,96
2022-11-29T04:16:05.575Z,88
2022-11-29T04:31:05.677Z,95
2022-11-29T04:46:05.590Z,121
2022-11-29T05:01:05.692Z,104
2022-11-29T05:16:04.690Z,94
2022-11-29T05:31:05.335Z,96
2022-11-29T05:46:05.541Z,98
2022-11-29T06:01:05.610Z,111
2022-11-29T06:16:05.330Z,121
2022-11-29T06:31:05.251Z,116
2022-11-29T06:46:04.872Z,115
2022-11-29T07:01:05.366Z,101
2022-11-29T07:16:05.450Z,110
2022-11-29T07:31:05.491Z,90
2022-11-29T07:46:05.355Z,79
2022-11-29T08:01:05.414Z,86
2022-11-29T08:16:05.390Z,74
2022-11-29T08:31:05.180Z,70
2022-11-29T08:46:05.777Z,76
2022-11-29T09:01:05.455Z,77
2022-11-29T09:16:05.889Z,71
2022-11-29T09:31:05.166Z,80
2022-11-29T09:46:05.321Z,73
2022-11-29T10:01:05.021Z,78
2022-11-29T10:16:04.934Z,79
2022-11-29T10:31:05.033Z,60
2022-11-29T10:46:05.196Z,55
2022-11-29T11:01:05.813Z,52
2022-11-29T11:16:05.524Z,48
2022-11-29T11:31:05.808Z,49
2022-11-29T11:46:08.634Z,48
2022-11-29T12:01:06.171Z,41
2022-11-29T12:16:05.749Z,38
2022-11-29T12:31:05.104Z,40
2022-11-29T12:46:05.283Z,37
2022-11-29T13:01:05.096Z,47
2022-11-29T13:16:05.063Z,43
2022-11-29T13:31:05.199Z,40
2022-11-29T13:46:05.281Z,47
2022-11-29T14:01:04.512Z,48
2022-11-29T14:16:05.939Z,50
2022-11-29T14:31:05.586Z,49
2022-11-29T14:46:05.560Z,51
2022-11-29T15:01:11.541Z,53
2022-11-29T15:16:09.601Z,66
2022-11-29T15:31:05.436Z,64
2022-11-29T15:46:05.465Z,62
2022-11-29T16:01:05.316Z,65
2022-11-29T16:16:05.625Z,73
2022-11-29T16:31:05.557Z,89
2022-11-29T16:46:05.745Z,83
2022-11-29T17:01:05.659Z,90
2022-11-29T17:16:05.963Z,99
2022-11-29T17:31:04.979Z,121
2022-11-29T17:46:05.095Z,151
2022-11-29T18:01:05.281Z,156
2022-11-29T18:16:05.062Z,145
2022-11-29T18:31:04.885Z,112
2022-11-29T18:46:05.549Z,123
2022-11-29T19:01:05.524Z,124
2022-11-29T19:16:05.689Z,133
2022-11-29T19:31:05.849Z,142
2022-11-29T19:46:04.903Z,125
2022-11-29T20:01:05.602Z,145
2022-11-29T20:16:05.516Z,246
2022-11-29T20:31:05.234Z,194
2022-11-29T20:46:05.796Z,341
2022-11-29T21:01:05.452Z,318
2022-11-29T21:16:05.139Z,349
2022-11-29T21:31:05.287Z,504
2022-11-29T21:46:05.017Z,298
2022-11-29T22:01:05.061Z,287
2022-11-29T22:16:05.005Z,278
2022-11-29T22:31:05.217Z,205
2022-11-29T22:46:05.408Z,715
2022-11-29T23:01:05.726Z,191
2022-11-29T23:16:05.031Z,515
2022-11-29T23:31:05.119Z,340
2022-11-29T23:46:05.495Z,146
